sensor_id;sensor_type;location;lat;lon;timestamp;pressure;altitude;pressure_sealevel;temperature;humidity
47082;BME280;33066;49.296;14.470;2023-07-31T00:02:17;96916.37;;;22.30;39.97
47082;BME280;33066;49.296;14.470;2023-07-31T00:04:42;96918.44;;;22.22;40.10
47082;BME280;33066;49.296;14.470;2023-07-31T00:07:07;96919.79;;;22.44;40.11
47082;BME280;33066;49.296;14.470;2023-07-31T00:09:32;96918.43;;;22.18;40.12
47082;BME280;33066;49.296;14.470;2023-07-31T00:11:57;96917.81;;;22.19;40.07
47082;BME280;33066;49.296;14.470;2023-07-31T00:14:22;96918.07;;;22.44;39.98
47082;BME280;33066;49.296;14.470;2023-07-31T00:16:47;96918.75;;;22.42;39.93
47082;BME280;33066;49.296;14.470;2023-07-31T00:19:12;96922.20;;;22.24;39.86
47082;BME280;33066;49.296;14.470;2023-07-31T00:21:37;96920.81;;;22.18;39.96
47082;BME280;33066;49.296;14.470;2023-07-31T00:24:03;96922.82;;;22.37;40.06
47082;BME280;33066;49.296;14.470;2023-07-31T00:26:28;96922.44;;;22.35;40.11
47082;BME280;33066;49.296;14.470;2023-07-31T00:28:53;96923.35;;;22.04;40.15
47082;BME280;33066;49.296;14.470;2023-07-31T00:31:18;96924.27;;;22.22;40.21
47082;BME280;33066;49.296;14.470;2023-07-31T00:33:43;96920.44;;;22.41;40.14
47082;BME280;33066;49.296;14.470;2023-07-31T00:36:08;96921.74;;;22.11;40.17
47082;BME280;33066;49.296;14.470;2023-07-31T00:38:33;96919.68;;;22.31;40.21
47082;BME280;33066;49.296;14.470;2023-07-31T00:40:58;96918.61;;;21.83;40.28
47082;BME280;33066;49.296;14.470;2023-07-31T00:43:24;96922.13;;;21.79;40.31
47082;BME280;33066;49.296;14.470;2023-07-31T00:45:48;96919.71;;;22.02;40.32
47082;BME280;33066;49.296;14.470;2023-07-31T00:48:13;96919.72;;;22.02;40.34
47082;BME280;33066;49.296;14.470;2023-07-31T00:50:39;96919.40;;;22.24;40.30
47082;BME280;33066;49.296;14.470;2023-07-31T00:53:04;96918.11;;;22.01;40.28
47082;BME280;33066;49.296;14.470;2023-07-31T00:55:29;96916.66;;;22.19;40.28
47082;BME280;33066;49.296;14.470;2023-07-31T00:57:54;96914.79;;;22.12;40.30
47082;BME280;33066;49.296;14.470;2023-07-31T01:00:19;96915.71;;;21.87;40.35
47082;BME280;33066;49.296;14.470;2023-07-31T01:02:44;96915.45;;;22.11;40.26
47082;BME280;33066;49.296;14.470;2023-07-31T01:05:09;96917.19;;;22.13;40.12
47082;BME280;33066;49.296;14.470;2023-07-31T01:07:40;96917.55;;;21.89;40.04
47082;BME280;33066;49.296;14.470;2023-07-31T01:10:04;96917.19;;;22.14;39.85
47082;BME280;33066;49.296;14.470;2023-07-31T01:12:25;96916.49;;;21.90;39.82
47082;BME280;33066;49.296;14.470;2023-07-31T01:15:03;96914.68;;;21.84;39.57
47082;BME280;33066;49.296;14.470;2023-07-31T01:17:14;96912.04;;;21.46;39.18
47082;BME280;33066;49.296;14.470;2023-07-31T01:19:39;96910.28;;;21.81;39.13
47082;BME280;33066;49.296;14.470;2023-07-31T01:22:14;96908.75;;;21.58;38.84
47082;BME280;33066;49.296;14.470;2023-07-31T01:24:36;96904.77;;;21.51;39.16
47082;BME280;33066;49.296;14.470;2023-07-31T01:26:57;96901.55;;;21.67;39.49
47082;BME280;33066;49.296;14.470;2023-07-31T01:29:25;96897.47;;;21.81;39.83
47082;BME280;33066;49.296;14.470;2023-07-31T01:31:48;96897.18;;;21.65;39.86
47082;BME280;33066;49.296;14.470;2023-07-31T01:34:10;96893.93;;;21.85;39.90
47082;BME280;33066;49.296;14.470;2023-07-31T01:36:35;96894.76;;;21.81;39.97
47082;BME280;33066;49.296;14.470;2023-07-31T01:39:00;96894.47;;;21.79;39.91
47082;BME280;33066;49.296;14.470;2023-07-31T01:41:25;96894.19;;;21.98;40.20
47082;BME280;33066;49.296;14.470;2023-07-31T01:43:50;96892.29;;;21.69;40.20
47082;BME280;33066;49.296;14.470;2023-07-31T01:46:15;96893.00;;;21.65;40.23
47082;BME280;33066;49.296;14.470;2023-07-31T01:48:40;96893.90;;;21.65;40.27
47082;BME280;33066;49.296;14.470;2023-07-31T01:51:05;96893.91;;;21.36;40.32
47082;BME280;33066;49.296;14.470;2023-07-31T01:53:31;96895.41;;;21.61;40.30
47082;BME280;33066;49.296;14.470;2023-07-31T01:55:55;96893.16;;;21.58;40.36
47082;BME280;33066;49.296;14.470;2023-07-31T01:58:20;96892.61;;;21.79;40.43
47082;BME280;33066;49.296;14.470;2023-07-31T02:00:45;96891.22;;;21.49;40.38
47082;BME280;33066;49.296;14.470;2023-07-31T02:03:10;96888.05;;;21.48;40.31
47082;BME280;33066;49.296;14.470;2023-07-31T02:05:35;96889.05;;;21.48;40.31
47082;BME280;33066;49.296;14.470;2023-07-31T02:08:00;96889.53;;;21.46;40.19
47082;BME280;33066;49.296;14.470;2023-07-31T02:10:25;96889.11;;;21.66;40.36
47082;BME280;33066;49.296;14.470;2023-07-31T02:12:50;96886.56;;;21.39;40.27
47082;BME280;33066;49.296;14.470;2023-07-31T02:15:16;96885.27;;;21.37;40.20
47082;BME280;33066;49.296;14.470;2023-07-31T02:17:41;96886.09;;;21.62;40.28
47082;BME280;33066;49.296;14.470;2023-07-31T02:20:07;96886.96;;;21.57;40.40
47082;BME280;33066;49.296;14.470;2023-07-31T02:22:31;96886.72;;;21.27;40.41
47082;BME280;33066;49.296;14.470;2023-07-31T02:24:56;96884.52;;;21.45;40.62
47082;BME280;33066;49.296;14.470;2023-07-31T02:27:21;96885.13;;;21.21;40.74
47082;BME280;33066;49.296;14.470;2023-07-31T02:29:46;96883.20;;;21.28;40.60
47082;BME280;33066;49.296;14.470;2023-07-31T02:32:11;96884.21;;;21.29;40.35
47082;BME280;33066;49.296;14.470;2023-07-31T02:34:36;96883.29;;;21.27;40.41
47082;BME280;33066;49.296;14.470;2023-07-31T02:37:02;96879.61;;;21.29;40.42
47082;BME280;33066;49.296;14.470;2023-07-31T02:39:27;96879.59;;;21.24;40.34
47082;BME280;33066;49.296;14.470;2023-07-31T02:41:52;96872.98;;;21.16;40.40
47082;BME280;33066;49.296;14.470;2023-07-31T02:44:17;96872.37;;;21.36;40.34
47082;BME280;33066;49.296;14.470;2023-07-31T02:46:42;96875.76;;;21.34;40.41
47082;BME280;33066;49.296;14.470;2023-07-31T02:49:07;96875.26;;;21.31;40.31
47082;BME280;33066;49.296;14.470;2023-07-31T02:51:32;96873.67;;;21.10;40.32
47082;BME280;33066;49.296;14.470;2023-07-31T02:53:58;96874.05;;;21.04;40.40
47082;BME280;33066;49.296;14.470;2023-07-31T02:56:23;96871.57;;;21.27;40.48
47082;BME280;33066;49.296;14.470;2023-07-31T02:58:48;96871.52;;;21.24;40.34
47082;BME280;33066;49.296;14.470;2023-07-31T03:01:13;96874.41;;;21.18;40.34
47082;BME280;33066;49.296;14.470;2023-07-31T03:03:38;96870.38;;;21.14;40.34
47082;BME280;33066;49.296;14.470;2023-07-31T03:06:03;96868.63;;;21.33;40.38
47082;BME280;33066;49.296;14.470;2023-07-31T03:08:28;96871.07;;;21.07;40.39
47082;BME280;33066;49.296;14.470;2023-07-31T03:13:00;96871.68;;;21.01;39.84
47082;BME280;33066;49.296;14.470;2023-07-31T03:15:25;96875.25;;;21.38;39.99
47082;BME280;33066;49.296;14.470;2023-07-31T03:17:50;96875.58;;;21.28;39.92
47082;BME280;33066;49.296;14.470;2023-07-31T03:20:15;96873.17;;;21.14;40.03
47082;BME280;33066;49.296;14.470;2023-07-31T03:22:40;96870.56;;;21.04;40.17
47082;BME280;33066;49.296;14.470;2023-07-31T03:25:06;96873.13;;;21.03;40.15
47082;BME280;33066;49.296;14.470;2023-07-31T03:27:30;96871.78;;;21.22;40.23
47082;BME280;33066;49.296;14.470;2023-07-31T03:29:56;96873.89;;;20.70;40.26
47082;BME280;33066;49.296;14.470;2023-07-31T03:32:21;96873.59;;;20.90;40.31
47082;BME280;33066;49.296;14.470;2023-07-31T03:34:46;96873.69;;;21.07;40.35
47082;BME280;33066;49.296;14.470;2023-07-31T03:37:11;96869.53;;;21.03;40.33
47082;BME280;33066;49.296;14.470;2023-07-31T03:39:36;96869.29;;;20.78;40.22
47082;BME280;33066;49.296;14.470;2023-07-31T03:42:01;96869.70;;;20.72;40.26
47082;BME280;33066;49.296;14.470;2023-07-31T03:44:26;96869.81;;;20.96;40.20
47082;BME280;33066;49.296;14.470;2023-07-31T03:46:51;96867.02;;;21.01;40.28
47082;BME280;33066;49.296;14.470;2023-07-31T03:49:16;96869.09;;;20.99;40.11
47082;BME280;33066;49.296;14.470;2023-07-31T03:51:41;96870.30;;;20.75;40.28
47082;BME280;33066;49.296;14.470;2023-07-31T03:54:06;96875.10;;;20.95;40.03
47082;BME280;33066;49.296;14.470;2023-07-31T03:56:31;96875.72;;;20.63;40.05
47082;BME280;33066;49.296;14.470;2023-07-31T03:58:57;96872.86;;;20.84;40.17
47082;BME280;33066;49.296;14.470;2023-07-31T04:01:21;96872.97;;;20.60;40.29
47082;BME280;33066;49.296;14.470;2023-07-31T04:03:47;96870.24;;;20.87;40.22
47082;BME280;33066;49.296;14.470;2023-07-31T04:06:12;96867.72;;;20.65;40.16
47082;BME280;33066;49.296;14.470;2023-07-31T04:08:37;96868.34;;;20.88;40.08
47082;BME280;33066;49.296;14.470;2023-07-31T04:11:02;96871.30;;;20.87;39.92
47082;BME280;33066;49.296;14.470;2023-07-31T04:13:29;96872.61;;;20.83;40.14
47082;BME280;33066;49.296;14.470;2023-07-31T04:15:52;96870.00;;;20.81;40.14
47082;BME280;33066;49.296;14.470;2023-07-31T04:18:17;96868.26;;;20.58;40.08
47082;BME280;33066;49.296;14.470;2023-07-31T04:20:42;96868.37;;;20.59;40.16
47082;BME280;33066;49.296;14.470;2023-07-31T04:23:07;96863.79;;;20.80;39.98
47082;BME280;33066;49.296;14.470;2023-07-31T04:25:32;96863.60;;;20.77;40.11
47082;BME280;33066;49.296;14.470;2023-07-31T04:27:57;96864.86;;;20.57;39.98
47082;BME280;33066;49.296;14.470;2023-07-31T04:30:22;96863.91;;;20.82;39.92
47082;BME280;33066;49.296;14.470;2023-07-31T04:32:47;96867.07;;;20.81;39.97
47082;BME280;33066;49.296;14.470;2023-07-31T04:35:13;96870.71;;;20.82;39.92
47082;BME280;33066;49.296;14.470;2023-07-31T04:37:38;96872.79;;;20.63;39.86
47082;BME280;33066;49.296;14.470;2023-07-31T04:40:03;96872.76;;;20.92;39.83
47082;BME280;33066;49.296;14.470;2023-07-31T04:42:28;96874.87;;;20.99;40.09
47082;BME280;33066;49.296;14.470;2023-07-31T04:44:53;96876.32;;;20.88;40.13
47082;BME280;33066;49.296;14.470;2023-07-31T04:47:18;96876.85;;;21.18;39.94
47082;BME280;33066;49.296;14.470;2023-07-31T04:49:43;96874.19;;;20.95;39.94
47082;BME280;33066;49.296;14.470;2023-07-31T04:52:08;96869.34;;;21.00;40.08
47082;BME280;33066;49.296;14.470;2023-07-31T04:54:33;96866.85;;;21.06;39.93
47082;BME280;33066;49.296;14.470;2023-07-31T04:56:58;96867.05;;;21.31;39.79
47082;BME280;33066;49.296;14.470;2023-07-31T04:59:23;96865.31;;;20.78;39.77
47082;BME280;33066;49.296;14.470;2023-07-31T05:01:48;96864.14;;;20.77;39.86
47082;BME280;33066;49.296;14.470;2023-07-31T05:04:14;96864.91;;;21.04;39.90
47082;BME280;33066;49.296;14.470;2023-07-31T05:06:39;96862.90;;;21.07;40.06
47082;BME280;33066;49.296;14.470;2023-07-31T05:09:04;96862.92;;;20.89;39.88
47082;BME280;33066;49.296;14.470;2023-07-31T05:11:29;96862.94;;;20.95;39.73
47082;BME280;33066;49.296;14.470;2023-07-31T05:13:54;96867.50;;;21.19;39.90
47082;BME280;33066;49.296;14.470;2023-07-31T05:16:19;96863.80;;;21.18;40.16
47082;BME280;33066;49.296;14.470;2023-07-31T05:18:44;96866.06;;;21.17;40.09
47082;BME280;33066;49.296;14.470;2023-07-31T05:21:09;96867.12;;;21.13;39.89
47082;BME280;33066;49.296;14.470;2023-07-31T05:23:34;96869.85;;;21.35;39.96
47082;BME280;33066;49.296;14.470;2023-07-31T05:26:03;96872.23;;;21.09;40.11
47082;BME280;33066;49.296;14.470;2023-07-31T05:28:24;96871.90;;;21.10;40.24
47082;BME280;33066;49.296;14.470;2023-07-31T05:30:50;96873.81;;;20.91;40.56
47082;BME280;33066;49.296;14.470;2023-07-31T05:33:15;96874.94;;;21.24;40.48
47082;BME280;33066;49.296;14.470;2023-07-31T05:35:40;96872.30;;;21.05;40.43
47082;BME280;33066;49.296;14.470;2023-07-31T05:38:05;96874.29;;;21.15;40.45
47082;BME280;33066;49.296;14.470;2023-07-31T05:40:32;96870.82;;;21.31;40.48
47082;BME280;33066;49.296;14.470;2023-07-31T05:42:55;96872.24;;;21.44;40.61
47082;BME280;33066;49.296;14.470;2023-07-31T05:45:20;96874.76;;;21.77;40.65
47082;BME280;33066;49.296;14.470;2023-07-31T05:47:45;96872.14;;;21.63;40.48
47082;BME280;33066;49.296;14.470;2023-07-31T05:50:11;96873.95;;;21.78;39.87
47082;BME280;33066;49.296;14.470;2023-07-31T05:52:35;96875.02;;;21.73;38.89
47082;BME280;33066;49.296;14.470;2023-07-31T05:55:00;96871.67;;;22.02;38.64
47082;BME280;33066;49.296;14.470;2023-07-31T05:57:25;96867.99;;;22.20;38.84
47082;BME280;33066;49.296;14.470;2023-07-31T05:59:50;96867.95;;;21.93;38.83
47082;BME280;33066;49.296;14.470;2023-07-31T06:02:15;96865.76;;;21.86;38.34
47082;BME280;33066;49.296;14.470;2023-07-31T06:04:41;96866.26;;;22.14;38.23
47082;BME280;33066;49.296;14.470;2023-07-31T06:07:06;96868.11;;;21.69;37.25
47082;BME280;33066;49.296;14.470;2023-07-31T06:09:31;96867.56;;;21.83;37.34
47082;BME280;33066;49.296;14.470;2023-07-31T06:11:56;96868.85;;;22.22;37.62
47082;BME280;33066;49.296;14.470;2023-07-31T06:14:21;96863.20;;;22.08;37.04
47082;BME280;33066;49.296;14.470;2023-07-31T06:16:46;96862.29;;;21.60;37.10
47082;BME280;33066;49.296;14.470;2023-07-31T06:19:11;96865.60;;;21.51;36.79
47082;BME280;33066;49.296;14.470;2023-07-31T06:21:36;96866.13;;;22.45;37.08
47082;BME280;33066;49.296;14.470;2023-07-31T06:24:01;96864.99;;;22.13;37.37
47082;BME280;33066;49.296;14.470;2023-07-31T06:26:26;96862.02;;;22.11;37.53
47082;BME280;33066;49.296;14.470;2023-07-31T06:28:51;96863.14;;;22.07;37.26
47082;BME280;33066;49.296;14.470;2023-07-31T06:31:16;96859.94;;;21.93;37.09
47082;BME280;33066;49.296;14.470;2023-07-31T06:33:41;96859.09;;;21.71;37.13
47082;BME280;33066;49.296;14.470;2023-07-31T06:36:06;96854.57;;;22.05;36.90
47082;BME280;33066;49.296;14.470;2023-07-31T06:38:31;96854.34;;;21.89;36.77
47082;BME280;33066;49.296;14.470;2023-07-31T06:40:56;96851.37;;;21.82;36.95
47082;BME280;33066;49.296;14.470;2023-07-31T06:43:21;96852.95;;;21.92;36.26
47082;BME280;33066;49.296;14.470;2023-07-31T06:45:46;96851.12;;;21.59;36.22
47082;BME280;33066;49.296;14.470;2023-07-31T06:48:12;96860.62;;;21.69;36.42
47082;BME280;33066;49.296;14.470;2023-07-31T06:50:37;96858.25;;;22.20;36.41
47082;BME280;33066;49.296;14.470;2023-07-31T06:53:02;96863.76;;;21.78;35.85
47082;BME280;33066;49.296;14.470;2023-07-31T06:55:27;96861.31;;;21.77;36.10
47082;BME280;33066;49.296;14.470;2023-07-31T06:57:53;96862.60;;;22.06;36.06
47082;BME280;33066;49.296;14.470;2023-07-31T07:00:18;96867.72;;;21.94;36.21
47082;BME280;33066;49.296;14.470;2023-07-31T07:02:42;96862.33;;;21.82;36.16
47082;BME280;33066;49.296;14.470;2023-07-31T07:05:08;96867.27;;;21.57;36.43
47082;BME280;33066;49.296;14.470;2023-07-31T07:07:32;96861.11;;;21.51;36.15
47082;BME280;33066;49.296;14.470;2023-07-31T07:09:58;96856.37;;;22.02;36.13
47082;BME280;33066;49.296;14.470;2023-07-31T07:12:23;96859.31;;;22.12;35.98
47082;BME280;33066;49.296;14.470;2023-07-31T07:14:48;96857.93;;;21.91;35.14
47082;BME280;33066;49.296;14.470;2023-07-31T07:17:13;96855.86;;;21.86;35.42
47082;BME280;33066;49.296;14.470;2023-07-31T07:19:40;96856.23;;;21.78;35.49
47082;BME280;33066;49.296;14.470;2023-07-31T07:22:04;96856.47;;;21.91;35.09
47082;BME280;33066;49.296;14.470;2023-07-31T07:24:28;96852.01;;;22.18;34.25
47082;BME280;33066;49.296;14.470;2023-07-31T07:26:54;96845.34;;;22.07;34.54
47082;BME280;33066;49.296;14.470;2023-07-31T07:29:19;96840.64;;;22.20;33.93
47082;BME280;33066;49.296;14.470;2023-07-31T07:31:44;96844.43;;;22.40;34.02
47082;BME280;33066;49.296;14.470;2023-07-31T07:34:09;96856.42;;;22.17;34.38
47082;BME280;33066;49.296;14.470;2023-07-31T07:36:34;96838.02;;;22.47;34.52
47082;BME280;33066;49.296;14.470;2023-07-31T07:38:59;96836.94;;;22.55;34.15
47082;BME280;33066;49.296;14.470;2023-07-31T07:41:24;96831.98;;;22.72;34.04
47082;BME280;33066;49.296;14.470;2023-07-31T07:43:49;96832.56;;;22.82;34.02
47082;BME280;33066;49.296;14.470;2023-07-31T07:46:14;96831.76;;;22.92;34.09
47082;BME280;33066;49.296;14.470;2023-07-31T07:48:39;96823.82;;;23.28;33.66
47082;BME280;33066;49.296;14.470;2023-07-31T07:51:04;96823.09;;;23.43;34.00
47082;BME280;33066;49.296;14.470;2023-07-31T07:53:29;96831.59;;;22.97;32.96
47082;BME280;33066;49.296;14.470;2023-07-31T07:55:54;96842.27;;;23.11;33.44
47082;BME280;33066;49.296;14.470;2023-07-31T07:58:19;96829.87;;;22.38;33.11
47082;BME280;33066;49.296;14.470;2023-07-31T08:00:48;96834.09;;;22.81;33.23
47082;BME280;33066;49.296;14.470;2023-07-31T08:03:09;96835.11;;;23.40;32.95
47082;BME280;33066;49.296;14.470;2023-07-31T08:05:34;96832.62;;;23.53;32.71
47082;BME280;33066;49.296;14.470;2023-07-31T08:07:59;96827.26;;;23.64;32.55
47082;BME280;33066;49.296;14.470;2023-07-31T08:10:24;96818.15;;;23.50;31.59
47082;BME280;33066;49.296;14.470;2023-07-31T08:12:49;96817.36;;;23.38;32.38
47082;BME280;33066;49.296;14.470;2023-07-31T08:15:14;96815.17;;;23.55;32.17
47082;BME280;33066;49.296;14.470;2023-07-31T08:17:39;96805.63;;;23.62;31.37
47082;BME280;33066;49.296;14.470;2023-07-31T08:20:06;96799.31;;;23.83;31.69
47082;BME280;33066;49.296;14.470;2023-07-31T08:22:30;96801.02;;;24.09;31.61
47082;BME280;33066;49.296;14.470;2023-07-31T08:24:56;96801.42;;;24.28;31.46
47082;BME280;33066;49.296;14.470;2023-07-31T08:27:21;96797.58;;;24.58;31.31
47082;BME280;33066;49.296;14.470;2023-07-31T08:29:46;96798.09;;;24.43;31.47
47082;BME280;33066;49.296;14.470;2023-07-31T08:32:11;96799.88;;;24.49;31.54
47082;BME280;33066;49.296;14.470;2023-07-31T08:34:36;96799.57;;;24.59;31.38
47082;BME280;33066;49.296;14.470;2023-07-31T08:37:02;96806.34;;;23.92;31.25
47082;BME280;33066;49.296;14.470;2023-07-31T08:39:28;96804.06;;;23.76;31.91
47082;BME280;33066;49.296;14.470;2023-07-31T08:41:58;96805.96;;;23.63;31.61
47082;BME280;33066;49.296;14.470;2023-07-31T08:44:20;96805.92;;;23.92;31.27
47082;BME280;33066;49.296;14.470;2023-07-31T08:46:46;96806.37;;;23.73;31.28
47082;BME280;33066;49.296;14.470;2023-07-31T08:49:12;96810.96;;;23.73;30.97
47082;BME280;33066;49.296;14.470;2023-07-31T08:51:37;96807.81;;;23.50;30.97
47082;BME280;33066;49.296;14.470;2023-07-31T08:54:03;96811.05;;;23.72;30.77
47082;BME280;33066;49.296;14.470;2023-07-31T08:56:30;96808.00;;;23.68;30.89
47082;BME280;33066;49.296;14.470;2023-07-31T08:58:55;96807.72;;;24.13;30.79
47082;BME280;33066;49.296;14.470;2023-07-31T09:01:21;96803.69;;;24.43;30.64
47082;BME280;33066;49.296;14.470;2023-07-31T09:03:47;96802.23;;;24.79;30.49
47082;BME280;33066;49.296;14.470;2023-07-31T09:06:13;96801.49;;;24.45;30.32
47082;BME280;33066;49.296;14.470;2023-07-31T09:08:39;96796.88;;;24.81;29.91
47082;BME280;33066;49.296;14.470;2023-07-31T09:11:04;96811.44;;;24.48;29.32
47082;BME280;33066;49.296;14.470;2023-07-31T09:13:30;96814.56;;;24.33;29.61
47082;BME280;33066;49.296;14.470;2023-07-31T09:15:55;96807.98;;;23.91;29.79
47082;BME280;33066;49.296;14.470;2023-07-31T09:18:21;96801.93;;;24.00;30.35
47082;BME280;33066;49.296;14.470;2023-07-31T09:21:02;96812.36;;;23.80;30.61
47082;BME280;33066;49.296;14.470;2023-07-31T09:23:14;96804.43;;;23.72;30.39
47082;BME280;33066;49.296;14.470;2023-07-31T09:25:41;96805.73;;;23.87;30.81
47082;BME280;33066;49.296;14.470;2023-07-31T09:28:06;96804.33;;;24.26;30.27
47082;BME280;33066;49.296;14.470;2023-07-31T09:30:36;96804.11;;;24.20;29.78
47082;BME280;33066;49.296;14.470;2023-07-31T09:33:01;96797.29;;;23.97;29.81
47082;BME280;33066;49.296;14.470;2023-07-31T09:35:28;96794.16;;;24.44;30.02
47082;BME280;33066;49.296;14.470;2023-07-31T09:37:50;96797.40;;;24.61;29.83
47082;BME280;33066;49.296;14.470;2023-07-31T09:40:25;96788.69;;;24.90;29.36
47082;BME280;33066;49.296;14.470;2023-07-31T09:42:40;96786.61;;;24.86;29.66
47082;BME280;33066;49.296;14.470;2023-07-31T09:45:08;96783.00;;;25.15;29.36
47082;BME280;33066;49.296;14.470;2023-07-31T09:47:32;96780.20;;;25.11;28.82
47082;BME280;33066;49.296;14.470;2023-07-31T09:49:57;96782.11;;;24.84;28.72
47082;BME280;33066;49.296;14.470;2023-07-31T09:52:26;96779.80;;;25.04;29.56
47082;BME280;33066;49.296;14.470;2023-07-31T09:54:49;96773.74;;;24.85;29.45
47082;BME280;33066;49.296;14.470;2023-07-31T09:57:17;96774.47;;;24.91;28.89
47082;BME280;33066;49.296;14.470;2023-07-31T09:59:41;96771.37;;;24.89;28.63
47082;BME280;33066;49.296;14.470;2023-07-31T10:02:09;96769.14;;;25.35;28.75
47082;BME280;33066;49.296;14.470;2023-07-31T10:04:33;96766.11;;;25.42;28.82
47082;BME280;33066;49.296;14.470;2023-07-31T10:07:00;96765.25;;;25.69;28.32
47082;BME280;33066;49.296;14.470;2023-07-31T10:09:26;96765.22;;;25.48;27.53
47082;BME280;33066;49.296;14.470;2023-07-31T10:11:53;96754.98;;;25.05;27.74
47082;BME280;33066;49.296;14.470;2023-07-31T10:14:17;96749.37;;;25.43;27.94
47082;BME280;33066;49.296;14.470;2023-07-31T10:16:42;96743.81;;;25.29;27.12
47082;BME280;33066;49.296;14.470;2023-07-31T10:19:08;96741.31;;;25.71;27.35
47082;BME280;33066;49.296;14.470;2023-07-31T10:21:33;96745.21;;;25.46;27.23
47082;BME280;33066;49.296;14.470;2023-07-31T10:23:59;96736.58;;;25.65;27.26
47082;BME280;33066;49.296;14.470;2023-07-31T10:26:25;96733.60;;;25.45;27.58
47082;BME280;33066;49.296;14.470;2023-07-31T10:28:52;96735.48;;;25.78;27.14
47082;BME280;33066;49.296;14.470;2023-07-31T10:31:17;96722.37;;;25.44;27.48
47082;BME280;33066;49.296;14.470;2023-07-31T10:33:43;96722.51;;;25.36;27.51
47082;BME280;33066;49.296;14.470;2023-07-31T10:36:14;96715.44;;;26.13;27.40
47082;BME280;33066;49.296;14.470;2023-07-31T10:38:34;96714.28;;;26.48;27.48
47082;BME280;33066;49.296;14.470;2023-07-31T10:41:07;96709.90;;;26.34;26.99
47082;BME280;33066;49.296;14.470;2023-07-31T10:43:26;96701.10;;;26.72;25.63
47082;BME280;33066;49.296;14.470;2023-07-31T10:45:52;96706.52;;;26.25;26.01
47082;BME280;33066;49.296;14.470;2023-07-31T10:48:18;96705.78;;;26.29;25.66
47082;BME280;33066;49.296;14.470;2023-07-31T10:50:48;96703.29;;;26.49;25.58
47082;BME280;33066;49.296;14.470;2023-07-31T10:55:39;96696.09;;;26.60;25.73
47082;BME280;33066;49.296;14.470;2023-07-31T10:58:07;96690.17;;;26.01;26.29
47082;BME280;33066;49.296;14.470;2023-07-31T11:00:28;96685.97;;;25.62;26.59
47082;BME280;33066;49.296;14.470;2023-07-31T11:02:59;96691.05;;;25.98;26.17
47082;BME280;33066;49.296;14.470;2023-07-31T11:05:18;96679.64;;;26.04;26.34
47082;BME280;33066;49.296;14.470;2023-07-31T11:07:48;96679.55;;;26.13;26.55
47082;BME280;33066;49.296;14.470;2023-07-31T11:10:10;96676.67;;;25.85;26.68
47082;BME280;33066;49.296;14.470;2023-07-31T11:12:36;96676.51;;;26.02;27.05
47082;BME280;33066;49.296;14.470;2023-07-31T11:15:01;96672.12;;;26.04;27.24
47082;BME280;33066;49.296;14.470;2023-07-31T11:17:27;96678.09;;;26.38;26.40
47082;BME280;33066;49.296;14.470;2023-07-31T11:19:53;96669.54;;;25.92;26.70
47082;BME280;33066;49.296;14.470;2023-07-31T11:22:18;96668.39;;;26.40;26.66
47082;BME280;33066;49.296;14.470;2023-07-31T11:24:44;96660.94;;;26.42;26.55
47082;BME280;33066;49.296;14.470;2023-07-31T11:27:10;96671.95;;;25.89;26.91
47082;BME280;33066;49.296;14.470;2023-07-31T11:29:36;96666.44;;;25.73;26.93
47082;BME280;33066;49.296;14.470;2023-07-31T11:32:03;96662.30;;;25.67;27.21
47082;BME280;33066;49.296;14.470;2023-07-31T11:34:27;96662.49;;;25.94;27.23
47082;BME280;33066;49.296;14.470;2023-07-31T11:36:54;96653.07;;;25.99;27.22
47082;BME280;33066;49.296;14.470;2023-07-31T11:39:19;96648.06;;;25.71;27.42
47082;BME280;33066;49.296;14.470;2023-07-31T11:41:45;96648.53;;;25.88;27.45
47082;BME280;33066;49.296;14.470;2023-07-31T11:44:10;96653.77;;;26.00;27.31
47082;BME280;33066;49.296;14.470;2023-07-31T11:46:36;96651.95;;;26.36;27.60
47082;BME280;33066;49.296;14.470;2023-07-31T11:49:02;96657.32;;;26.06;27.66
47082;BME280;33066;49.296;14.470;2023-07-31T11:51:29;96653.63;;;26.22;27.57
47082;BME280;33066;49.296;14.470;2023-07-31T11:53:56;96649.20;;;26.75;27.22
47082;BME280;33066;49.296;14.470;2023-07-31T11:56:20;96641.79;;;27.88;26.53
47082;BME280;33066;49.296;14.470;2023-07-31T12:01:11;96642.76;;;26.96;26.48
47082;BME280;33066;49.296;14.470;2023-07-31T12:03:38;96640.00;;;26.98;26.23
47082;BME280;33066;49.296;14.470;2023-07-31T12:06:03;96632.70;;;26.15;26.65
47082;BME280;33066;49.296;14.470;2023-07-31T12:08:29;96629.55;;;26.64;26.40
47082;BME280;33066;49.296;14.470;2023-07-31T12:10:54;96630.56;;;27.01;26.52
47082;BME280;33066;49.296;14.470;2023-07-31T12:13:22;96626.01;;;27.26;26.29
47082;BME280;33066;49.296;14.470;2023-07-31T12:15:47;96623.45;;;27.48;26.19
47082;BME280;33066;49.296;14.470;2023-07-31T12:18:13;96622.43;;;27.38;26.51
47082;BME280;33066;49.296;14.470;2023-07-31T12:20:44;96625.77;;;27.11;26.17
47082;BME280;33066;49.296;14.470;2023-07-31T12:23:04;96621.11;;;26.88;25.96
47082;BME280;33066;49.296;14.470;2023-07-31T12:25:31;96615.22;;;27.64;25.60
47082;BME280;33066;49.296;14.470;2023-07-31T12:27:55;96605.99;;;28.93;25.62
47082;BME280;33066;49.296;14.470;2023-07-31T12:30:28;96611.25;;;29.27;24.18
47082;BME280;33066;49.296;14.470;2023-07-31T12:32:47;96599.71;;;29.20;23.81
47082;BME280;33066;49.296;14.470;2023-07-31T12:35:13;96595.06;;;29.27;23.33
47082;BME280;33066;49.296;14.470;2023-07-31T12:37:38;96589.67;;;29.93;23.20
47082;BME280;33066;49.296;14.470;2023-07-31T12:40:04;96585.08;;;30.05;23.45
47082;BME280;33066;49.296;14.470;2023-07-31T12:42:31;96593.54;;;29.92;23.51
47082;BME280;33066;49.296;14.470;2023-07-31T12:44:55;96591.43;;;30.06;23.13
47082;BME280;33066;49.296;14.470;2023-07-31T12:47:21;96580.85;;;30.72;22.93